Time;durP1;ratioP1;P1;durP2;ratioP2;P2;SDS_P1;SDS_P2;PMS_P1;PMS_P2;Temp;Humidity;BMP_temperature;BMP_pressure;BME280_temperature;BME280_humidity;BME280_pressure;Samples;Min_cycle;Max_cycle;Signal;HPM_P1;HPM_P2
2021/07/17 00:01:54;;;;;;;;;;;;;;;-148.22;100.00;58358.63;5035349;28;1280;-80
2021/07/17 00:04:55;;;;;;;;;;;;;;;-148.22;100.00;58358.63;5033439;28;1302;-79
2021/07/17 00:07:22;;;;;;;;;;;;;;;-148.22;100.00;58358.63;5033908;28;1902;-79
2021/07/17 00:09:54;;;;;;;;;;;;;;;-148.22;100.00;58358.63;5033674;28;1270;-79
2021/07/17 00:12:26;;;;;;;;;;;;;;;-148.22;100.00;58358.63;5032680;28;1522;-79
2021/07/17 00:14:51;;;;;;;;;;;;;;;-148.22;100.00;58358.63;5035221;28;1017;-79
2021/07/17 00:17:16;;;;;;;;;;;;;;;-148.22;100.00;58358.63;5035455;28;1079;-79
2021/07/17 00:19:42;;;;;;;;;;;;;;;-148.22;100.00;58358.63;5033953;28;1159;-79
2021/07/17 00:22:11;;;;;;;;;;;;;;;-148.22;100.00;58358.63;5033864;28;1333;-79
2021/07/17 00:24:38;;;;;;;;;;;;;;;-148.22;100.00;58358.63;5034044;28;1388;-79
2021/07/17 00:27:13;;;;;;;;;;;;;;;-148.22;100.00;58358.63;5033726;28;1953;-79
2021/07/17 00:29:40;;;;;;;;;;;;;;;-148.22;100.00;58358.63;5035030;28;1001;-79
2021/07/17 00:32:07;;;;;;;;;;;;;;;-148.22;100.00;58358.63;5035096;28;1001;-79
2021/07/17 00:34:47;;;;;;;;;;;;;;;-148.22;100.00;58358.63;5033899;28;1242;-79
2021/07/17 00:37:19;;;;;;;;;;;;;;;-148.22;100.00;58358.63;5034346;28;1206;-79
2021/07/17 00:39:45;;;;;;;;;;;;;;;-148.22;100.00;58358.63;5034908;28;886;-80
2021/07/17 00:42:28;;;;;;;;;;;;;;;-148.22;100.00;58358.63;5035980;28;1294;-79
2021/07/17 00:45:06;;;;;;;;;;;;;;;-148.22;100.00;58358.63;5036298;28;1361;-80
2021/07/17 00:47:40;;;;;;;;;;;;;;;-148.22;100.00;58358.63;5035544;28;1947;-80
2021/07/17 00:50:07;;;;;;;;;;;;;;;-148.22;100.00;58358.63;5049684;28;1082;-81
2021/07/17 00:52:59;;;;;;;;;;;;;;;-148.22;100.00;58358.63;5030479;28;1174;-81
2021/07/17 00:55:27;;;;;;;;;;;;;;;-148.22;100.00;58358.63;5016576;28;1216;-80
2021/07/17 00:57:55;;;;;;;;;;;;;;;-148.22;100.00;58358.63;4999986;28;1347;-81
2021/07/17 01:00:21;;;;;;;;;;;;;;;-148.22;100.00;58358.63;5016284;28;1005;-80
2021/07/17 01:02:50;;;;;;;;;;;;;;;-148.22;100.00;58358.63;5016335;28;851;-80
2021/07/17 01:05:23;;;;;;;;;;;;;;;-148.22;100.00;58358.63;4996786;28;1890;-81
2021/07/17 01:07:49;;;;;;;;;;;;;;;-148.22;100.00;58358.63;5016063;28;1284;-81
2021/07/17 01:10:43;;;;;;;;;;;;;;;-148.22;100.00;58358.63;4999644;28;1191;-81
2021/07/17 01:13:18;;;;;;;;;;;;;;;-148.22;100.00;58358.63;4957631;29;1070;-81
2021/07/17 01:15:45;;;;;;;;;;;;;;;-148.22;100.00;58358.63;4957656;29;954;-81
2021/07/17 01:18:22;;;;;;;;;;;;;;;-148.22;100.00;58358.63;4941662;29;1201;-81
2021/07/17 01:21:05;;;;;;;;;;;;;;;-148.22;100.00;58358.63;4941544;29;1181;-81
2021/07/17 01:23:31;;;;;;;;;;;;;;;-148.22;100.00;58358.63;4941495;29;1351;-81
2021/07/17 01:25:56;;;;;;;;;;;;;;;-148.22;100.00;58358.63;4941155;29;1974;-81
2021/07/17 01:28:24;;;;;;;;;;;;;;;-148.22;100.00;58358.63;4956630;28;1255;-81
2021/07/17 01:30:52;;;;;;;;;;;;;;;-148.22;100.00;58358.63;4940765;29;1209;-81
2021/07/17 01:33:18;;;;;;;;;;;;;;;-148.22;100.00;58358.63;4941354;29;1334;-81
2021/07/17 01:35:45;;;;;;;;;;;;;;;-148.22;100.00;58358.63;4941276;28;1156;-81
2021/07/17 01:38:12;;;;;;;;;;;;;;;-148.22;100.00;58358.63;4941323;28;1244;-80
2021/07/17 01:40:54;;;;;;;;;;;;;;;-148.22;100.00;58358.63;4941187;29;1153;-81
2021/07/17 01:43:51;;;;;;;;;;;;;;;-148.22;100.00;58358.63;4941246;28;1256;-80
2021/07/17 01:46:45;;;;;;;;;;;;;;;-148.22;100.00;58358.63;4918908;29;1886;-81
2021/07/17 01:49:11;;;;;;;;;;;;;;;-148.22;100.00;58358.63;4935570;28;1290;-81
2021/07/17 01:51:38;;;;;;;;;;;;;;;-148.22;100.00;58358.63;4976293;28;981;-81
2021/07/17 01:54:04;;;;;;;;;;;;;;;-148.22;100.00;58358.63;4976453;28;1053;-80
2021/07/17 01:56:29;;;;;;;;;;;;;;;-148.22;100.00;58358.63;4976225;28;1301;-81
2021/07/17 01:58:56;;;;;;;;;;;;;;;-148.22;100.00;58358.63;4976166;28;1295;-81
2021/07/17 02:01:37;;;;;;;;;;;;;;;-148.22;100.00;58358.63;4976088;28;1398;-85
2021/07/17 02:04:30;;;;;;;;;;;;;;;-148.22;100.00;58358.63;4990148;28;1216;-86
2021/07/17 02:06:55;;;;;;;;;;;;;;;-148.22;100.00;58358.63;4995554;28;1886;-85
2021/07/17 02:09:21;;;;;;;;;;;;;;;-148.22;100.00;58358.63;4995777;28;1188;-82
2021/07/17 02:14:49;;;;;;;;;;;;;;;-148.22;100.00;58358.63;4995835;28;590;-81
2021/07/17 02:17:24;;;;;;;;;;;;;;;-148.22;100.00;58358.63;4995671;28;1307;-82
2021/07/17 02:20:15;;;;;;;;;;;;;;;-148.22;100.00;58358.63;4979270;28;1298;-82
2021/07/17 02:25:49;;;;;;;;;;;;;;;-148.22;100.00;58358.63;5036886;28;1979;-82
2021/07/17 02:28:36;;;;;;;;;;;;;;;-148.22;100.00;58358.63;5036821;28;1040;-82
2021/07/17 02:31:02;;;;;;;;;;;;;;;-148.22;100.00;58358.63;5036782;28;874;-83
2021/07/17 02:33:44;;;;;;;;;;;;;;;-148.22;100.00;58358.63;5052140;28;1237;-82
2021/07/17 02:36:10;;;;;;;;;;;;;;;-148.22;100.00;58358.63;5036668;28;1071;-82
2021/07/17 02:38:44;;;;;;;;;;;;;;;-148.22;100.00;58358.63;5035433;28;1286;-82
2021/07/17 02:41:11;;;;;;;;;;;;;;;-148.22;100.00;58358.63;5034469;28;1254;-83
2021/07/17 02:46:39;;;;;;;;;;;;;;;-148.22;100.00;58358.63;5036367;28;1957;-82
2021/07/17 02:49:24;;;;;;;;;;;;;;;-148.22;100.00;58358.63;5035309;28;1005;-82
2021/07/17 02:52:04;;;;;;;;;;;;;;;-148.22;100.00;58358.63;5036276;28;1205;-82
2021/07/17 02:54:54;;;;;;;;;;;;;;;-148.22;100.00;58358.63;5035026;28;1374;-82
2021/07/17 02:57:31;;;;;;;;;;;;;;;-148.22;100.00;58358.63;5035102;28;1295;-83
2021/07/17 03:03:13;;;;;;;;;;;;;;;-148.22;100.00;58358.63;5036231;28;661;-83
2021/07/17 03:09:08;;;;;;;;;;;;;;;-148.22;100.00;58358.63;5025566;28;1149;-83
2021/07/17 03:11:34;;;;;;;;;;;;;;;-148.22;100.00;58358.63;5035908;28;1032;-82
2021/07/17 03:17:02;;;;;;;;;;;;;;;-148.22;100.00;58358.63;5035933;28;606;-82
2021/07/17 03:19:55;;;;;;;;;;;;;;;-148.22;100.00;58358.63;5034851;28;1244;-83
2021/07/17 03:25:23;;;;;;;;;;;;;;;-148.22;100.00;58358.63;5035858;28;1903;-83
2021/07/17 03:27:50;;;;;;;;;;;;;;;-148.22;100.00;58358.63;5033922;28;1182;-82
2021/07/17 03:30:16;;;;;;;;;;;;;;;-148.22;100.00;58358.63;5034106;28;1253;-83
2021/07/17 03:32:58;;;;;;;;;;;;;;;-148.22;100.00;58358.63;5034675;28;1285;-83
2021/07/17 03:38:33;;;;;;;;;;;;;;;-148.22;100.00;58358.63;5035713;28;613;-83
2021/07/17 03:47:17;;;;;;;;;;;;;;;-148.22;100.00;58358.63;5034991;28;1894;-81
2021/07/17 03:50:00;;;;;;;;;;;;;;;-148.22;100.00;58358.63;5034606;28;1195;-84
2021/07/17 03:52:51;;;;;;;;;;;;;;;-148.22;100.00;58358.63;5034232;28;1176;-84
2021/07/17 03:55:24;;;;;;;;;;;;;;;-148.22;100.00;58358.63;5033863;28;1284;-84
2021/07/17 03:57:49;;;;;;;;;;;;;;;-148.22;100.00;58358.63;5034402;28;1259;-84
2021/07/17 04:03:17;;;;;;;;;;;;;;;-148.22;100.00;58358.63;5035445;28;616;-84
2021/07/17 04:06:14;;;;;;;;;;;;;;;-148.22;100.00;58358.63;5034052;28;1950;-83
2021/07/17 04:08:39;;;;;;;;;;;;;;;-148.22;100.00;58358.63;5029456;28;1195;-83
2021/07/17 04:11:04;;;;;;;;;;;;;;;-148.22;100.00;58358.63;5034506;28;1358;-84
2021/07/17 04:14:02;;;;;;;;;;;;;;;-148.22;100.00;58358.63;5035373;28;1004;-84
2021/07/17 04:19:46;;;;;;;;;;;;;;;-148.22;100.00;58358.63;5017725;28;958;-84
2021/07/17 04:22:14;;;;;;;;;;;;;;;-148.22;100.00;58358.63;4999835;28;1255;-84
2021/07/17 04:25:07;;;;;;;;;;;;;;;-148.22;100.00;58358.63;5008857;28;1193;-83
2021/07/17 04:27:58;;;;;;;;;;;;;;;-148.22;100.00;58358.63;5017209;28;1890;-84
2021/07/17 04:30:26;;;;;;;;;;;;;;;-148.22;100.00;58358.63;5017214;28;1242;-84
2021/07/17 04:33:11;;;;;;;;;;;;;;;-148.22;100.00;58358.63;5017358;28;1071;-84
2021/07/17 04:36:04;;;;;;;;;;;;;;;-148.22;100.00;58358.63;5000608;28;1329;-84
2021/07/17 04:38:30;;;;;;;;;;;;;;;-148.22;100.00;58358.63;5017103;28;1291;-84
2021/07/17 04:44:17;;;;;;;;;;;;;;;-148.22;100.00;58358.63;5017018;28;700;-83
2021/07/17 04:47:07;;;;;;;;;;;;;;;-148.22;100.00;58358.63;5015933;28;1958;-83
2021/07/17 04:50:02;;;;;;;;;;;;;;;-148.22;100.00;58358.63;5016226;28;1272;-84
2021/07/17 04:52:46;;;;;;;;;;;;;;;-148.22;100.00;58358.63;4948790;29;1377;-83
2021/07/17 04:58:52;;;;;;;;;;;;;;;-148.22;100.00;58358.63;4957954;29;1142;-83
2021/07/17 05:01:19;;;;;;;;;;;;;;;-148.22;100.00;58358.63;4958380;29;902;-83
2021/07/17 05:03:45;;;;;;;;;;;;;;;-148.22;100.00;58358.63;4958085;29;1446;-83
2021/07/17 05:06:40;;;;;;;;;;;;;;;-148.22;100.00;58358.63;4958040;29;1956;-83
2021/07/17 05:12:21;;;;;;;;;;;;;;;-148.22;100.00;58358.63;4882371;29;1154;-84
2021/07/17 05:14:46;;;;;;;;;;;;;;;-148.22;100.00;58358.63;4882306;29;1280;-83
2021/07/17 05:17:20;;;;;;;;;;;;;;;-148.22;100.00;58358.63;4866618;29;1324;-83
2021/07/17 05:19:46;;;;;;;;;;;;;;;-148.22;100.00;58358.63;4882414;29;1046;-83
2021/07/17 05:22:46;;;;;;;;;;;;;;;-148.22;100.00;58358.63;4882161;29;1062;-83
2021/07/17 05:25:31;;;;;;;;;;;;;;;-148.22;100.00;58358.63;4844957;29;1239;-83
2021/07/17 05:28:06;;;;;;;;;;;;;;;-148.22;100.00;58358.63;4848492;29;1275;-82
2021/07/17 05:30:50;;;;;;;;;;;;;;;-148.22;100.00;58358.63;4881370;29;1318;-83
2021/07/17 05:33:24;;;;;;;;;;;;;;;-148.22;100.00;58358.63;4898651;29;1336;-82
2021/07/17 05:35:52;;;;;;;;;;;;;;;-148.22;100.00;58358.63;4901980;29;1179;-83
2021/07/17 05:38:17;;;;;;;;;;;;;;;-148.22;100.00;58358.63;4919633;29;1058;-83
2021/07/17 05:40:43;;;;;;;;;;;;;;;-148.22;100.00;58358.63;4919593;29;1034;-84
2021/07/17 05:43:18;;;;;;;;;;;;;;;-148.22;100.00;58358.63;4903595;29;1174;-84
2021/07/17 05:45:54;;;;;;;;;;;;;;;-148.22;100.00;58358.63;4925659;29;1906;-83
2021/07/17 05:48:49;;;;;;;;;;;;;;;-148.22;100.00;58358.63;4938965;29;1233;-83
2021/07/17 05:51:29;;;;;;;;;;;;;;;-148.22;100.00;58358.63;4918811;29;1010;-83
2021/07/17 05:56:57;;;;;;;;;;;;;;;-148.22;100.00;58358.63;4919220;29;678;-84
2021/07/17 05:59:24;;;;;;;;;;;;;;;-148.22;100.00;58358.63;4936479;28;1208;-84
2021/07/17 06:02:00;;;;;;;;;;;;;;;-148.22;100.00;58358.63;4976558;28;1205;-83
2021/07/17 06:05:03;;;;;;;;;;;;;;;-148.22;100.00;58358.63;4976258;28;1139;-83
2021/07/17 06:07:30;;;;;;;;;;;;;;;-148.22;100.00;58358.63;4921936;29;1974;-83
2021/07/17 06:09:56;;;;;;;;;;;;;;;-148.22;100.00;58358.63;4923835;29;1312;-83
2021/07/17 06:12:21;;;;;;;;;;;;;;;-148.22;100.00;58358.63;4922129;29;1178;-83
2021/07/17 06:14:58;;;;;;;;;;;;;;;-148.22;100.00;58358.63;4921896;29;1019;-83
2021/07/17 06:17:34;;;;;;;;;;;;;;;-148.22;100.00;58358.63;4921997;29;1190;-83
2021/07/17 06:20:01;;;;;;;;;;;;;;;-148.22;100.00;58358.63;4920348;29;1337;-83
2021/07/17 06:23:00;;;;;;;;;;;;;;;-148.22;100.00;58358.63;4920987;29;1335;-83
2021/07/17 06:25:27;;;;;;;;;;;;;;;-148.22;100.00;58358.63;4920836;29;1237;-83
2021/07/17 06:27:53;;;;;;;;;;;;;;;-148.22;100.00;58358.63;4932537;29;1998;-83
2021/07/17 06:30:32;;;;;;;;;;;;;;;-148.22;100.00;58358.63;4956754;29;1017;-84
2021/07/17 06:33:07;;;;;;;;;;;;;;;-148.22;100.00;58358.63;4940667;29;1225;-83
2021/07/17 06:35:34;;;;;;;;;;;;;;;-148.22;100.00;58358.63;4940545;29;1166;-83
2021/07/17 06:38:01;;;;;;;;;;;;;;;-148.22;100.00;58358.63;4956691;28;796;-83
2021/07/17 06:40:48;;;;;;;;;;;;;;;-148.22;100.00;58358.63;4958578;28;1120;-83
2021/07/17 06:43:38;;;;;;;;;;;;;;;-148.22;100.00;58358.63;4992804;28;1179;-83
2021/07/17 06:46:16;;;;;;;;;;;;;;;-148.22;100.00;58358.63;4992534;28;1886;-83
2021/07/17 06:48:55;;;;;;;;;;;;;;;-148.22;100.00;58358.63;4989385;28;988;-83
2021/07/17 06:51:45;;;;;;;;;;;;;;;-148.22;100.00;58358.63;4995181;28;1210;-83
2021/07/17 06:54:44;;;;;;;;;;;;;;;-148.22;100.00;58358.63;4995676;28;1223;-82
2021/07/17 06:57:23;;;;;;;;;;;;;;;-148.22;100.00;58358.63;4995876;28;1207;-84
2021/07/17 06:59:48;;;;;;;;;;;;;;;-148.22;100.00;58358.63;4995606;28;1139;-84
2021/07/17 07:02:30;;;;;;;;;;;;;;;-148.22;100.00;58358.63;5012204;28;1227;-83
2021/07/17 07:05:12;;;;;;;;;;;;;;;-148.22;100.00;58358.63;4995570;28;1203;-84
2021/07/17 07:07:45;;;;;;;;;;;;;;;-148.22;100.00;58358.63;4995119;28;1855;-83
2021/07/17 07:10:12;;;;;;;;;;;;;;;-148.22;100.00;58358.63;4999380;28;1221;-83
2021/07/17 07:12:38;;;;;;;;;;;;;;;-148.22;100.00;58358.63;5034850;28;1254;-83
2021/07/17 07:15:07;;;;;;;;;;;;;;;-148.22;100.00;58358.63;5034634;28;1311;-83
2021/07/17 07:17:51;;;;;;;;;;;;;;;-148.22;100.00;58358.63;5047414;28;1322;-83
2021/07/17 07:20:18;;;;;;;;;;;;;;;-148.22;100.00;58358.63;5032241;28;1498;-83
2021/07/17 07:22:46;;;;;;;;;;;;;;;-148.22;100.00;58358.63;5034583;28;1317;-83
2021/07/17 07:25:12;;;;;;;;;;;;;;;-148.22;100.00;58358.63;5034637;28;1247;-84
2021/07/17 07:27:50;;;;;;;;;;;;;;;-148.22;100.00;58358.63;5034640;28;1979;-84
2021/07/17 07:33:17;;;;;;;;;;;;;;;-148.22;100.00;58358.63;5035882;28;594;-84
2021/07/17 07:35:44;;;;;;;;;;;;;;;-148.22;100.00;58358.63;5034651;28;1255;-84
2021/07/17 07:38:46;;;;;;;;;;;;;;;-148.22;100.00;58358.63;5033967;28;1600;-82
2021/07/17 07:41:40;;;;;;;;;;;;;;;-148.22;100.00;58358.63;5012829;28;1001;-83
2021/07/17 07:44:18;;;;;;;;;;;;;;;-148.22;100.00;58358.63;5013277;28;1304;-83
2021/07/17 07:46:58;;;;;;;;;;;;;;;-148.22;100.00;58358.63;5013966;28;1894;-83
2021/07/17 07:49:43;;;;;;;;;;;;;;;-148.22;100.00;58358.63;4997358;28;1196;-83
2021/07/17 07:52:10;;;;;;;;;;;;;;;-148.22;100.00;58358.63;5017729;28;1322;-83
2021/07/17 07:54:36;;;;;;;;;;;;;;;-148.22;100.00;58358.63;5017756;28;1206;-83
2021/07/17 07:57:02;;;;;;;;;;;;;;;-148.22;100.00;58358.63;5001421;28;1265;-83
2021/07/17 07:59:44;;;;;;;;;;;;;;;-148.22;100.00;58358.63;5017918;28;1309;-83
2021/07/17 08:02:30;;;;;;;;;;;;;;;-148.22;100.00;58358.63;5001281;28;1264;-83
2021/07/17 08:05:09;;;;;;;;;;;;;;;-148.22;100.00;58358.63;5001402;28;1311;-83
2021/07/17 08:07:43;;;;;;;;;;;;;;;-148.22;100.00;58358.63;5000247;28;2343;-83
2021/07/17 08:10:09;;;;;;;;;;;;;;;-148.22;100.00;58358.63;4999745;28;1177;-84
2021/07/17 08:12:34;;;;;;;;;;;;;;;-148.22;100.00;58358.63;5000543;28;1081;-83
2021/07/17 08:15:27;;;;;;;;;;;;;;;-148.22;100.00;58358.63;5015425;28;1197;-83
2021/07/17 08:17:54;;;;;;;;;;;;;;;-148.22;100.00;58358.63;5015996;28;1179;-83
2021/07/17 08:20:59;;;;;;;;;;;;;;;-148.22;100.00;58358.63;5000956;28;1326;-83
2021/07/17 08:23:38;;;;;;;;;;;;;;;-148.22;100.00;58358.63;5017228;28;1325;-82
2021/07/17 08:26:13;;;;;;;;;;;;;;;-148.22;100.00;58358.63;5000066;28;1972;-83
2021/07/17 08:29:16;;;;;;;;;;;;;;;-148.22;100.00;58358.63;5000753;28;1254;-83
2021/07/17 08:31:53;;;;;;;;;;;;;;;-148.22;100.00;58358.63;5017164;28;1303;-83
2021/07/17 08:34:34;;;;;;;;;;;;;;;-148.22;100.00;58358.63;5000686;28;1222;-83
2021/07/17 08:37:00;;;;;;;;;;;;;;;-148.22;100.00;58358.63;5017015;28;1000;-83
2021/07/17 08:39:40;;;;;;;;;;;;;;;-148.22;100.00;58358.63;5000700;28;1195;-83
2021/07/17 08:42:05;;;;;;;;;;;;;;;-148.22;100.00;58358.63;5017005;28;1072;-83
2021/07/17 08:44:42;;;;;;;;;;;;;;;-148.22;100.00;58358.63;5000569;28;1358;-83
2021/07/17 08:47:09;;;;;;;;;;;;;;;-148.22;100.00;58358.63;5000332;28;1894;-83
2021/07/17 08:49:44;;;;;;;;;;;;;;;-148.22;100.00;58358.63;5000333;28;1253;-82
2021/07/17 08:52:28;;;;;;;;;;;;;;;-148.22;100.00;58358.63;5016114;28;920;-83
2021/07/17 08:54:56;;;;;;;;;;;;;;;-148.22;100.00;58358.63;5028136;28;1224;-82
2021/07/17 08:57:46;;;;;;;;;;;;;;;-148.22;100.00;58358.63;5037230;28;1200;-83
2021/07/17 09:00:17;;;;;;;;;;;;;;;-148.22;100.00;58358.63;5038524;28;893;-83
2021/07/17 09:02:45;;;;;;;;;;;;;;;-148.22;100.00;58358.63;5036013;28;1201;-83
2021/07/17 09:05:12;;;;;;;;;;;;;;;-148.22;100.00;58358.63;5037345;28;1342;-83
2021/07/17 09:07:38;;;;;;;;;;;;;;;-148.22;100.00;58358.63;5037004;28;1898;-83
2021/07/17 09:10:22;;;;;;;;;;;;;;;-148.22;100.00;58358.63;5037166;28;1191;-83
2021/07/17 09:12:47;;;;;;;;;;;;;;;-148.22;100.00;58358.63;5036974;28;1228;-82
2021/07/17 09:15:19;;;;;;;;;;;;;;;-148.22;100.00;58358.63;5038144;28;1048;-82
2021/07/17 09:18:12;;;;;;;;;;;;;;;-148.22;100.00;58358.63;5036946;28;1155;-82
2021/07/17 09:20:39;;;;;;;;;;;;;;;-148.22;100.00;58358.63;5019427;28;1156;-83
2021/07/17 09:23:15;;;;;;;;;;;;;;;-148.22;100.00;58358.63;5019673;28;1352;-83
2021/07/17 09:25:42;;;;;;;;;;;;;;;-148.22;100.00;58358.63;5018549;28;1981;-82
2021/07/17 09:28:17;;;;;;;;;;;;;;;-148.22;100.00;58358.63;5035275;28;1205;-83
2021/07/17 09:30:45;;;;;;;;;;;;;;;-148.22;100.00;58358.63;5019499;28;1187;-82
2021/07/17 09:33:14;;;;;;;;;;;;;;;-148.22;100.00;58358.63;5019319;28;1274;-83
2021/07/17 09:36:10;;;;;;;;;;;;;;;-148.22;100.00;58358.63;5018497;28;925;-83
2021/07/17 09:39:05;;;;;;;;;;;;;;;-148.22;100.00;58358.63;5018846;28;1192;-82
2021/07/17 09:42:03;;;;;;;;;;;;;;;-148.22;100.00;58358.63;5035683;28;1200;-83
2021/07/17 09:47:30;;;;;;;;;;;;;;;-148.22;100.00;58358.63;4975703;28;2010;-82
2021/07/17 09:50:20;;;;;;;;;;;;;;;-148.22;100.00;58358.63;4976042;28;1182;-83
2021/07/17 09:52:52;;;;;;;;;;;;;;;-148.22;100.00;58358.63;4976670;28;1392;-83
2021/07/17 09:55:33;;;;;;;;;;;;;;;-148.22;100.00;58358.63;4976622;28;1319;-83
2021/07/17 09:58:14;;;;;;;;;;;;;;;-148.22;100.00;58358.63;4961883;28;1264;-83
2021/07/17 10:00:41;;;;;;;;;;;;;;;-148.22;100.00;58358.63;4941123;28;1569;-83
2021/07/17 10:03:14;;;;;;;;;;;;;;;-148.22;100.00;58358.63;4957154;29;858;-82
2021/07/17 10:06:03;;;;;;;;;;;;;;;-148.22;100.00;58358.63;4956376;29;1969;-82
2021/07/17 10:08:32;;;;;;;;;;;;;;;-148.22;100.00;58358.63;4957119;29;909;-82
2021/07/17 10:11:02;;;;;;;;;;;;;;;-148.22;100.00;58358.63;4951899;29;1071;-82
2021/07/17 10:13:28;;;;;;;;;;;;;;;-148.22;100.00;58358.63;4940366;29;1344;-82
2021/07/17 10:16:14;;;;;;;;;;;;;;;-148.22;100.00;58358.63;4941190;29;1229;-82
2021/07/17 10:21:53;;;;;;;;;;;;;;;-148.22;100.00;58358.63;4995747;28;951;-82
2021/07/17 10:24:43;;;;;;;;;;;;;;;-148.22;100.00;58358.63;4995368;28;1335;-82
2021/07/17 10:27:34;;;;;;;;;;;;;;;-148.22;100.00;58358.63;4978996;28;1981;-82
2021/07/17 10:30:29;;;;;;;;;;;;;;;-148.22;100.00;58358.63;4995296;28;1430;-82
2021/07/17 10:32:55;;;;;;;;;;;;;;;-148.22;100.00;58358.63;4975933;28;1227;-82
2021/07/17 10:35:44;;;;;;;;;;;;;;;-148.22;100.00;58358.63;4975735;28;1296;-82
2021/07/17 10:38:28;;;;;;;;;;;;;;;-148.22;100.00;58358.63;4975757;28;1270;-82
2021/07/17 10:41:02;;;;;;;;;;;;;;;-148.22;100.00;58358.63;4975801;28;1350;-82
2021/07/17 10:43:49;;;;;;;;;;;;;;;-148.22;100.00;58358.63;4975468;28;1184;-82
2021/07/17 10:46:35;;;;;;;;;;;;;;;-148.22;100.00;58358.63;4975449;28;1891;-82
2021/07/17 10:49:10;;;;;;;;;;;;;;;-148.22;100.00;58358.63;4975681;28;1288;-82
2021/07/17 10:51:54;;;;;;;;;;;;;;;-148.22;100.00;58358.63;4975436;28;1001;-82
2021/07/17 10:54:36;;;;;;;;;;;;;;;-148.22;100.00;58358.63;4975389;28;1406;-82
2021/07/17 11:09:45;;;;;;;;;;;;;;;-148.22;100.00;58358.63;4993492;28;1027;-82
2021/07/17 11:12:30;;;;;;;;;;;;;;;-148.22;100.00;58358.63;5016172;28;1075;-82
2021/07/17 11:15:14;;;;;;;;;;;;;;;-148.22;100.00;58358.63;5031734;28;1196;-82
2021/07/17 11:24:12;;;;;;;;;;;;;;;-148.22;100.00;58358.63;4994601;28;1013;-83
2021/07/17 11:27:11;;;;;;;;;;;;;;;-148.22;100.00;58358.63;4993949;28;1918;-82
2021/07/17 11:29:40;;;;;;;;;;;;;;;-148.22;100.00;58358.63;4994503;28;921;-82
2021/07/17 11:32:20;;;;;;;;;;;;;;;-148.22;100.00;58358.63;4978163;28;1183;-82
2021/07/17 11:35:15;;;;;;;;;;;;;;;-148.22;100.00;58358.63;4994437;28;1172;-83
2021/07/17 11:37:41;;;;;;;;;;;;;;;-148.22;100.00;58358.63;4977957;28;1273;-83
2021/07/17 11:40:07;;;;;;;;;;;;;;;-148.22;100.00;58358.63;4994284;28;1242;-83
2021/07/17 11:42:46;;;;;;;;;;;;;;;-148.22;100.00;58358.63;4994275;28;1247;-82
2021/07/17 11:45:29;;;;;;;;;;;;;;;-148.22;100.00;58358.63;4994470;28;1358;-83
2021/07/17 11:48:16;;;;;;;;;;;;;;;-148.22;100.00;58358.63;4994210;28;1898;-83
2021/07/17 11:50:59;;;;;;;;;;;;;;;-148.22;100.00;58358.63;4993969;28;1060;-82
2021/07/17 11:53:35;;;;;;;;;;;;;;;-148.22;100.00;58358.63;4994077;28;1176;-83
2021/07/17 11:59:12;;;;;;;;;;;;;;;-148.22;100.00;58358.63;5035600;28;631;-83
2021/07/17 12:01:56;;;;;;;;;;;;;;;-148.22;100.00;58358.63;5034335;28;1325;-83
2021/07/17 12:07:19;;;;;;;;;;;;;;;-148.22;100.00;58358.63;5035415;28;1941;-83
2021/07/17 12:09:52;;;;;;;;;;;;;;;-148.22;100.00;58358.63;5034397;28;1285;-83
2021/07/17 12:12:19;;;;;;;;;;;;;;;-148.22;100.00;58358.63;5034291;28;1369;-82
2021/07/17 12:14:45;;;;;;;;;;;;;;;-148.22;100.00;58358.63;5034268;28;1203;-82
2021/07/17 12:17:50;;;;;;;;;;;;;;;-148.22;100.00;58358.63;5034327;28;1292;-83
2021/07/17 12:20:46;;;;;;;;;;;;;;;-148.22;100.00;58358.63;5034190;28;1269;-82
2021/07/17 12:23:30;;;;;;;;;;;;;;;-148.22;100.00;58358.63;5034767;28;912;-82
2021/07/17 12:26:04;;;;;;;;;;;;;;;-148.22;100.00;58358.63;5033423;28;1902;-82
2021/07/17 12:31:52;;;;;;;;;;;;;;;-148.22;100.00;58358.63;5035284;28;669;-83
2021/07/17 12:34:46;;;;;;;;;;;;;;;-148.22;100.00;58358.63;5034082;28;1230;-83
2021/07/17 12:37:24;;;;;;;;;;;;;;;-148.22;100.00;58358.63;5035640;28;1117;-83
2021/07/17 12:40:03;;;;;;;;;;;;;;;-148.22;100.00;58358.63;5020186;28;1184;-83
2021/07/17 12:43:03;;;;;;;;;;;;;;;-148.22;100.00;58358.63;5036715;28;1398;-83
2021/07/17 12:45:47;;;;;;;;;;;;;;;-148.22;100.00;58358.63;5017028;28;1249;-83
2021/07/17 12:48:14;;;;;;;;;;;;;;;-148.22;100.00;58358.63;5016566;28;1184;-83
2021/07/17 12:54:20;;;;;;;;;;;;;;;-148.22;100.00;58358.63;5016917;28;987;-83
2021/07/17 12:57:17;;;;;;;;;;;;;;;-148.22;100.00;58358.63;5016624;28;1197;-83
2021/07/17 12:59:42;;;;;;;;;;;;;;;-148.22;100.00;58358.63;5016671;28;1297;-83
2021/07/17 13:02:14;;;;;;;;;;;;;;;-148.22;100.00;58358.63;4998446;28;1318;-83
2021/07/17 13:04:46;;;;;;;;;;;;;;;-148.22;100.00;58358.63;5016603;28;931;-83
2021/07/17 13:10:16;;;;;;;;;;;;;;;-148.22;100.00;58358.63;5014832;28;1002;-83
2021/07/17 13:12:41;;;;;;;;;;;;;;;-148.22;100.00;58358.63;5014054;28;1241;-82
2021/07/17 13:15:25;;;;;;;;;;;;;;;-148.22;100.00;58358.63;4996864;28;1031;-82
2021/07/17 13:18:00;;;;;;;;;;;;;;;-148.22;100.00;58358.63;4980517;28;1205;-82
2021/07/17 13:20:57;;;;;;;;;;;;;;;-148.22;100.00;58358.63;5001179;28;958;-82
2021/07/17 13:23:47;;;;;;;;;;;;;;;-148.22;100.00;58358.63;5000020;28;1192;-82
2021/07/17 13:26:46;;;;;;;;;;;;;;;-148.22;100.00;58358.63;5016202;28;1906;-83
2021/07/17 13:32:54;;;;;;;;;;;;;;;-148.22;100.00;58358.63;5018145;28;649;-82
2021/07/17 13:35:30;;;;;;;;;;;;;;;-148.22;100.00;58358.63;5016902;28;1211;-83
2021/07/17 13:38:04;;;;;;;;;;;;;;;-148.22;100.00;58358.63;5016762;28;1332;-83
2021/07/17 13:43:35;;;;;;;;;;;;;;;-148.22;100.00;58358.63;5017919;28;1098;-82
2021/07/17 13:46:15;;;;;;;;;;;;;;;-148.22;100.00;58358.63;5016406;28;1895;-82
2021/07/17 13:48:50;;;;;;;;;;;;;;;-148.22;100.00;58358.63;5017068;28;1001;-82
2021/07/17 13:51:17;;;;;;;;;;;;;;;-148.22;100.00;58358.63;5016510;28;1470;-83
2021/07/17 13:54:14;;;;;;;;;;;;;;;-148.22;100.00;58358.63;5016701;28;1232;-83
2021/07/17 13:56:41;;;;;;;;;;;;;;;-148.22;100.00;58358.63;5016580;28;1192;-83
2021/07/17 13:59:14;;;;;;;;;;;;;;;-148.22;100.00;58358.63;5016338;28;1175;-83
2021/07/17 14:02:02;;;;;;;;;;;;;;;-148.22;100.00;58358.63;5016306;28;1247;-83
2021/07/17 14:07:30;;;;;;;;;;;;;;;-148.22;100.00;58358.63;5017414;28;1883;-82
2021/07/17 14:09:56;;;;;;;;;;;;;;;-148.22;100.00;58358.63;5016199;28;1224;-82
2021/07/17 14:12:25;;;;;;;;;;;;;;;-148.22;100.00;58358.63;5029975;28;1200;-82
2021/07/17 14:15:27;;;;;;;;;;;;;;;-148.22;100.00;58358.63;5035872;28;1211;-83
2021/07/17 14:18:13;;;;;;;;;;;;;;;-148.22;100.00;58358.63;5035832;28;1193;-82
2021/07/17 14:20:45;;;;;;;;;;;;;;;-148.22;100.00;58358.63;5035695;28;1272;-83
2021/07/17 14:23:10;;;;;;;;;;;;;;;-148.22;100.00;58358.63;5035139;28;1154;-82
2021/07/17 14:25:52;;;;;;;;;;;;;;;-148.22;100.00;58358.63;5035677;28;1193;-82
2021/07/17 14:31:20;;;;;;;;;;;;;;;-148.22;100.00;58358.63;5036671;28;660;-82
2021/07/17 14:34:05;;;;;;;;;;;;;;;-148.22;100.00;58358.63;5036947;28;930;-82
2021/07/17 14:36:31;;;;;;;;;;;;;;;-148.22;100.00;58358.63;5035478;28;1300;-82
2021/07/17 14:39:17;;;;;;;;;;;;;;;-148.22;100.00;58358.63;5035341;28;1153;-82
2021/07/17 14:42:09;;;;;;;;;;;;;;;-148.22;100.00;58358.63;5035499;28;1138;-82
2021/07/17 14:44:37;;;;;;;;;;;;;;;-148.22;100.00;58358.63;5014493;28;1228;-82
2021/07/17 14:47:10;;;;;;;;;;;;;;;-148.22;100.00;58358.63;5014709;28;1878;-83
2021/07/17 14:49:44;;;;;;;;;;;;;;;-148.22;100.00;58358.63;5014789;28;943;-82
2021/07/17 14:52:25;;;;;;;;;;;;;;;-148.22;100.00;58358.63;4998197;28;1331;-82
2021/07/17 14:54:52;;;;;;;;;;;;;;;-148.22;100.00;58358.63;5014575;28;1014;-82
2021/07/17 14:57:26;;;;;;;;;;;;;;;-148.22;100.00;58358.63;5014591;28;807;-83
2021/07/17 14:59:58;;;;;;;;;;;;;;;-148.22;100.00;58358.63;5013729;28;922;-82
2021/07/17 15:02:57;;;;;;;;;;;;;;;-148.22;100.00;58358.63;4997996;28;1250;-82